Summum, Illinois
Current Conditions -  °F | °C
As of 7:35 PM on Monday 22 Dec 2014 (Local Time) from KMQB Reporting Station
Drizzle Drizzle  
Wind Chill: 38°   Ceiling: 200
Heat Index: 43°   Visibility: 5mi
Dew Point: 43°   Wind: 10mph
Humidity: 100%   Direction: 130°SE
Pressure: 29.54"   Gusts: NA
Location:  40.2311°N, 90.3343°W
Report Text: KMQB 230135Z AUTO 13009KT 5SM -DZ OVC002 06/06 A2954 RMK AO2 T00630063
Loading
Personal Weather Stations






























Interactive Weather Map New forecast layout! Learn more

10-Day Weather Forecast

Advertisements
Track Severe Weather on mobile